sensor_id;sensor_type;location;lat;lon;timestamp;temperature;humidity
38973;DHT22;25333;50.762;4.470;2022-10-31T00:02:22;13.30;99.90
38973;DHT22;25333;50.762;4.470;2022-10-31T00:04:48;13.30;99.90
38973;DHT22;25333;50.762;4.470;2022-10-31T00:07:13;13.30;99.90
38973;DHT22;25333;50.762;4.470;2022-10-31T00:09:39;13.30;99.90
38973;DHT22;25333;50.762;4.470;2022-10-31T00:12:05;13.20;99.90
38973;DHT22;25333;50.762;4.470;2022-10-31T00:14:30;13.10;99.90
38973;DHT22;25333;50.762;4.470;2022-10-31T00:16:56;13.20;99.90
38973;DHT22;25333;50.762;4.470;2022-10-31T00:19:21;13.20;99.90
38973;DHT22;25333;50.762;4.470;2022-10-31T00:21:47;13.20;99.90
38973;DHT22;25333;50.762;4.470;2022-10-31T00:24:13;13.20;99.90
38973;DHT22;25333;50.762;4.470;2022-10-31T00:26:38;13.20;99.90
38973;DHT22;25333;50.762;4.470;2022-10-31T00:29:04;13.00;99.90
38973;DHT22;25333;50.762;4.470;2022-10-31T00:31:30;12.80;99.90
38973;DHT22;25333;50.762;4.470;2022-10-31T00:33:56;12.80;99.90
38973;DHT22;25333;50.762;4.470;2022-10-31T00:36:22;12.90;99.90
38973;DHT22;25333;50.762;4.470;2022-10-31T00:38:48;13.00;99.90
38973;DHT22;25333;50.762;4.470;2022-10-31T00:41:16;13.00;99.90
38973;DHT22;25333;50.762;4.470;2022-10-31T00:43:43;13.00;99.90
38973;DHT22;25333;50.762;4.470;2022-10-31T00:46:10;12.90;99.90
38973;DHT22;25333;50.762;4.470;2022-10-31T00:48:35;12.80;99.90
38973;DHT22;25333;50.762;4.470;2022-10-31T00:51:01;12.80;99.90
38973;DHT22;25333;50.762;4.470;2022-10-31T00:53:27;12.80;99.90
38973;DHT22;25333;50.762;4.470;2022-10-31T00:55:52;12.70;99.90
38973;DHT22;25333;50.762;4.470;2022-10-31T00:58:18;12.70;99.90
38973;DHT22;25333;50.762;4.470;2022-10-31T01:00:44;12.70;99.90
38973;DHT22;25333;50.762;4.470;2022-10-31T01:03:09;12.70;99.90
38973;DHT22;25333;50.762;4.470;2022-10-31T01:05:35;12.60;99.90
38973;DHT22;25333;50.762;4.470;2022-10-31T01:08:00;12.60;99.90
38973;DHT22;25333;50.762;4.470;2022-10-31T01:10:26;12.60;99.90
38973;DHT22;25333;50.762;4.470;2022-10-31T01:12:52;12.60;99.90
38973;DHT22;25333;50.762;4.470;2022-10-31T01:15:21;12.60;99.90
38973;DHT22;25333;50.762;4.470;2022-10-31T01:17:47;12.60;99.90
38973;DHT22;25333;50.762;4.470;2022-10-31T01:20:14;12.50;99.90
38973;DHT22;25333;50.762;4.470;2022-10-31T01:22:40;12.40;99.90
38973;DHT22;25333;50.762;4.470;2022-10-31T01:25:08;12.40;99.90
38973;DHT22;25333;50.762;4.470;2022-10-31T01:27:34;12.40;99.90
38973;DHT22;25333;50.762;4.470;2022-10-31T01:29:59;12.30;99.90
38973;DHT22;25333;50.762;4.470;2022-10-31T01:32:26;12.30;99.90
38973;DHT22;25333;50.762;4.470;2022-10-31T01:34:54;12.30;99.90
38973;DHT22;25333;50.762;4.470;2022-10-31T01:37:20;12.30;99.90
38973;DHT22;25333;50.762;4.470;2022-10-31T01:39:48;12.40;99.90
38973;DHT22;25333;50.762;4.470;2022-10-31T01:42:18;12.30;99.90
38973;DHT22;25333;50.762;4.470;2022-10-31T01:47:25;12.20;99.90
38973;DHT22;25333;50.762;4.470;2022-10-31T01:49:56;12.10;99.90
38973;DHT22;25333;50.762;4.470;2022-10-31T01:52:24;12.00;99.90
38973;DHT22;25333;50.762;4.470;2022-10-31T01:55:01;12.00;99.90
38973;DHT22;25333;50.762;4.470;2022-10-31T01:57:29;12.00;99.90
38973;DHT22;25333;50.762;4.470;2022-10-31T01:59:59;11.90;99.90
38973;DHT22;25333;50.762;4.470;2022-10-31T02:02:27;12.00;99.90
38973;DHT22;25333;50.762;4.470;2022-10-31T02:04:56;11.90;99.90
38973;DHT22;25333;50.762;4.470;2022-10-31T02:07:31;11.90;99.90
38973;DHT22;25333;50.762;4.470;2022-10-31T02:09:58;11.90;99.90
38973;DHT22;25333;50.762;4.470;2022-10-31T02:12:25;11.70;99.90
38973;DHT22;25333;50.762;4.470;2022-10-31T02:14:51;11.60;99.90
38973;DHT22;25333;50.762;4.470;2022-10-31T02:17:16;11.60;99.90
38973;DHT22;25333;50.762;4.470;2022-10-31T02:20:10;11.50;99.90
38973;DHT22;25333;50.762;4.470;2022-10-31T02:23:08;11.40;99.90
38973;DHT22;25333;50.762;4.470;2022-10-31T02:28:29;11.50;99.90
38973;DHT22;25333;50.762;4.470;2022-10-31T02:37:46;11.50;99.90
38973;DHT22;25333;50.762;4.470;2022-10-31T02:40:25;11.40;99.90
38973;DHT22;25333;50.762;4.470;2022-10-31T02:48:17;11.50;99.90
38973;DHT22;25333;50.762;4.470;2022-10-31T02:50:48;11.50;99.90
38973;DHT22;25333;50.762;4.470;2022-10-31T02:53:16;11.50;99.90
38973;DHT22;25333;50.762;4.470;2022-10-31T02:55:49;11.50;99.90
38973;DHT22;25333;50.762;4.470;2022-10-31T02:58:18;11.50;99.90
38973;DHT22;25333;50.762;4.470;2022-10-31T03:06:56;11.20;99.90
38973;DHT22;25333;50.762;4.470;2022-10-31T03:12:28;11.20;99.90
38973;DHT22;25333;50.762;4.470;2022-10-31T03:15:16;11.30;99.90
38973;DHT22;25333;50.762;4.470;2022-10-31T03:17:56;11.30;99.90
38973;DHT22;25333;50.762;4.470;2022-10-31T03:20:28;11.30;99.90
38973;DHT22;25333;50.762;4.470;2022-10-31T03:22:56;11.30;99.90
38973;DHT22;25333;50.762;4.470;2022-10-31T03:25:23;11.10;99.90
38973;DHT22;25333;50.762;4.470;2022-10-31T03:27:50;10.90;99.90
38973;DHT22;25333;50.762;4.470;2022-10-31T03:30:16;10.90;99.90
38973;DHT22;25333;50.762;4.470;2022-10-31T03:32:52;10.90;99.90
38973;DHT22;25333;50.762;4.470;2022-10-31T03:35:21;10.90;99.90
38973;DHT22;25333;50.762;4.470;2022-10-31T03:37:49;11.00;99.90
38973;DHT22;25333;50.762;4.470;2022-10-31T03:40:19;11.00;99.90
38973;DHT22;25333;50.762;4.470;2022-10-31T03:42:54;11.00;99.90
38973;DHT22;25333;50.762;4.470;2022-10-31T03:45:26;10.90;99.90
38973;DHT22;25333;50.762;4.470;2022-10-31T03:47:53;10.90;99.90
38973;DHT22;25333;50.762;4.470;2022-10-31T03:50:20;10.80;99.90
38973;DHT22;25333;50.762;4.470;2022-10-31T03:53:02;10.70;99.90
38973;DHT22;25333;50.762;4.470;2022-10-31T03:55:43;10.80;99.90
38973;DHT22;25333;50.762;4.470;2022-10-31T03:58:20;10.90;99.90
38973;DHT22;25333;50.762;4.470;2022-10-31T04:00:49;10.80;99.90
38973;DHT22;25333;50.762;4.470;2022-10-31T04:03:39;10.80;99.90
38973;DHT22;25333;50.762;4.470;2022-10-31T04:06:08;10.90;99.90
38973;DHT22;25333;50.762;4.470;2022-10-31T04:08:41;10.90;99.90
38973;DHT22;25333;50.762;4.470;2022-10-31T04:11:08;10.90;99.90
38973;DHT22;25333;50.762;4.470;2022-10-31T04:13:37;10.80;99.90
38973;DHT22;25333;50.762;4.470;2022-10-31T04:16:05;10.80;99.90
38973;DHT22;25333;50.762;4.470;2022-10-31T04:18:31;10.70;99.90
38973;DHT22;25333;50.762;4.470;2022-10-31T04:21:02;10.80;99.90
38973;DHT22;25333;50.762;4.470;2022-10-31T04:23:28;10.70;99.90
38973;DHT22;25333;50.762;4.470;2022-10-31T04:25:55;10.60;99.90
38973;DHT22;25333;50.762;4.470;2022-10-31T04:28:20;10.50;99.90
38973;DHT22;25333;50.762;4.470;2022-10-31T04:30:46;10.60;99.90
38973;DHT22;25333;50.762;4.470;2022-10-31T04:33:12;10.70;99.90
38973;DHT22;25333;50.762;4.470;2022-10-31T04:35:37;10.60;99.90
38973;DHT22;25333;50.762;4.470;2022-10-31T04:38:03;10.70;99.90
38973;DHT22;25333;50.762;4.470;2022-10-31T04:40:28;10.70;99.90
38973;DHT22;25333;50.762;4.470;2022-10-31T04:42:54;10.70;99.90
38973;DHT22;25333;50.762;4.470;2022-10-31T04:45:20;10.80;99.90
38973;DHT22;25333;50.762;4.470;2022-10-31T04:47:45;10.80;99.90
38973;DHT22;25333;50.762;4.470;2022-10-31T04:50:13;10.90;99.90
38973;DHT22;25333;50.762;4.470;2022-10-31T04:52:43;10.90;99.90
38973;DHT22;25333;50.762;4.470;2022-10-31T04:55:10;10.90;99.90
38973;DHT22;25333;50.762;4.470;2022-10-31T04:57:43;10.90;99.90
38973;DHT22;25333;50.762;4.470;2022-10-31T05:00:10;10.90;99.90
38973;DHT22;25333;50.762;4.470;2022-10-31T05:02:47;10.90;99.90
38973;DHT22;25333;50.762;4.470;2022-10-31T05:05:14;10.90;99.90
38973;DHT22;25333;50.762;4.470;2022-10-31T05:07:41;10.90;99.90
38973;DHT22;25333;50.762;4.470;2022-10-31T05:10:13;10.70;99.90
38973;DHT22;25333;50.762;4.470;2022-10-31T05:12:49;10.70;99.90
38973;DHT22;25333;50.762;4.470;2022-10-31T05:15:15;10.70;99.90
38973;DHT22;25333;50.762;4.470;2022-10-31T05:17:42;10.70;99.90
38973;DHT22;25333;50.762;4.470;2022-10-31T05:20:08;10.70;99.90
38973;DHT22;25333;50.762;4.470;2022-10-31T05:22:34;10.70;99.90
38973;DHT22;25333;50.762;4.470;2022-10-31T05:25:00;10.60;99.90
38973;DHT22;25333;50.762;4.470;2022-10-31T05:27:25;10.60;99.90
38973;DHT22;25333;50.762;4.470;2022-10-31T05:29:51;10.60;99.90
38973;DHT22;25333;50.762;4.470;2022-10-31T05:32:17;10.70;99.90
38973;DHT22;25333;50.762;4.470;2022-10-31T05:34:42;10.80;99.90
38973;DHT22;25333;50.762;4.470;2022-10-31T05:37:08;10.90;99.90
38973;DHT22;25333;50.762;4.470;2022-10-31T05:39:34;10.90;99.90
38973;DHT22;25333;50.762;4.470;2022-10-31T05:41:59;10.90;99.90
38973;DHT22;25333;50.762;4.470;2022-10-31T05:44:25;10.90;99.90
38973;DHT22;25333;50.762;4.470;2022-10-31T05:46:50;10.80;99.90
38973;DHT22;25333;50.762;4.470;2022-10-31T05:49:16;10.80;99.90
38973;DHT22;25333;50.762;4.470;2022-10-31T05:51:42;10.90;99.90
38973;DHT22;25333;50.762;4.470;2022-10-31T05:54:08;10.90;99.90
38973;DHT22;25333;50.762;4.470;2022-10-31T05:56:34;10.90;99.90
38973;DHT22;25333;50.762;4.470;2022-10-31T05:58:59;10.90;99.90
38973;DHT22;25333;50.762;4.470;2022-10-31T06:01:25;10.90;99.90
38973;DHT22;25333;50.762;4.470;2022-10-31T06:03:51;11.00;99.90
38973;DHT22;25333;50.762;4.470;2022-10-31T06:06:16;11.00;99.90
38973;DHT22;25333;50.762;4.470;2022-10-31T06:08:45;11.00;99.90
38973;DHT22;25333;50.762;4.470;2022-10-31T06:11:11;11.00;99.90
38973;DHT22;25333;50.762;4.470;2022-10-31T06:13:37;11.10;99.90
38973;DHT22;25333;50.762;4.470;2022-10-31T06:16:02;11.00;99.90
38973;DHT22;25333;50.762;4.470;2022-10-31T06:18:28;11.00;99.90
38973;DHT22;25333;50.762;4.470;2022-10-31T06:20:54;11.00;99.90
38973;DHT22;25333;50.762;4.470;2022-10-31T06:23:19;11.10;99.90
38973;DHT22;25333;50.762;4.470;2022-10-31T06:25:49;11.10;99.90
38973;DHT22;25333;50.762;4.470;2022-10-31T06:28:15;11.10;99.90
38973;DHT22;25333;50.762;4.470;2022-10-31T06:30:40;11.20;99.90
38973;DHT22;25333;50.762;4.470;2022-10-31T06:33:06;11.10;99.90
38973;DHT22;25333;50.762;4.470;2022-10-31T06:35:32;11.20;99.90
38973;DHT22;25333;50.762;4.470;2022-10-31T06:37:57;11.30;99.90
38973;DHT22;25333;50.762;4.470;2022-10-31T06:40:23;11.30;99.90
38973;DHT22;25333;50.762;4.470;2022-10-31T06:42:57;11.20;99.90
38973;DHT22;25333;50.762;4.470;2022-10-31T06:45:23;11.30;99.90
38973;DHT22;25333;50.762;4.470;2022-10-31T06:47:53;11.30;99.90
38973;DHT22;25333;50.762;4.470;2022-10-31T06:50:20;11.30;99.90
38973;DHT22;25333;50.762;4.470;2022-10-31T06:52:57;11.40;99.90
38973;DHT22;25333;50.762;4.470;2022-10-31T06:55:24;11.30;99.90
38973;DHT22;25333;50.762;4.470;2022-10-31T06:57:54;11.30;99.90
38973;DHT22;25333;50.762;4.470;2022-10-31T07:00:20;11.30;99.90
38973;DHT22;25333;50.762;4.470;2022-10-31T07:03:04;11.20;99.90
38973;DHT22;25333;50.762;4.470;2022-10-31T07:05:30;11.20;99.90
38973;DHT22;25333;50.762;4.470;2022-10-31T07:07:58;11.30;99.90
38973;DHT22;25333;50.762;4.470;2022-10-31T07:10:25;11.40;99.90
38973;DHT22;25333;50.762;4.470;2022-10-31T07:12:59;11.40;99.90
38973;DHT22;25333;50.762;4.470;2022-10-31T07:15:26;11.50;99.90
38973;DHT22;25333;50.762;4.470;2022-10-31T07:17:52;11.50;99.90
38973;DHT22;25333;50.762;4.470;2022-10-31T07:20:19;11.60;99.90
38973;DHT22;25333;50.762;4.470;2022-10-31T07:22:44;11.60;99.90
38973;DHT22;25333;50.762;4.470;2022-10-31T07:25:10;11.60;99.90
38973;DHT22;25333;50.762;4.470;2022-10-31T07:27:38;11.70;99.90
38973;DHT22;25333;50.762;4.470;2022-10-31T07:30:05;11.60;99.90
38973;DHT22;25333;50.762;4.470;2022-10-31T07:32:38;11.40;99.90
38973;DHT22;25333;50.762;4.470;2022-10-31T07:35:07;11.50;99.90
38973;DHT22;25333;50.762;4.470;2022-10-31T07:37:33;11.50;99.90
38973;DHT22;25333;50.762;4.470;2022-10-31T07:39:58;11.50;99.90
38973;DHT22;25333;50.762;4.470;2022-10-31T07:42:24;11.60;99.90
38973;DHT22;25333;50.762;4.470;2022-10-31T07:44:50;11.60;99.90
38973;DHT22;25333;50.762;4.470;2022-10-31T07:47:15;11.70;99.90
38973;DHT22;25333;50.762;4.470;2022-10-31T07:49:41;11.70;99.90
38973;DHT22;25333;50.762;4.470;2022-10-31T07:52:07;11.70;99.90
38973;DHT22;25333;50.762;4.470;2022-10-31T07:54:32;11.70;99.90
38973;DHT22;25333;50.762;4.470;2022-10-31T07:56:58;11.70;99.90
38973;DHT22;25333;50.762;4.470;2022-10-31T07:59:23;11.80;99.90
38973;DHT22;25333;50.762;4.470;2022-10-31T08:01:51;11.80;99.90
38973;DHT22;25333;50.762;4.470;2022-10-31T08:04:16;11.80;99.90
38973;DHT22;25333;50.762;4.470;2022-10-31T08:06:42;12.00;99.90
38973;DHT22;25333;50.762;4.470;2022-10-31T08:09:07;12.10;99.90
38973;DHT22;25333;50.762;4.470;2022-10-31T08:11:33;12.10;99.90
38973;DHT22;25333;50.762;4.470;2022-10-31T08:13:59;12.20;99.90
38973;DHT22;25333;50.762;4.470;2022-10-31T08:16:24;12.30;99.90
38973;DHT22;25333;50.762;4.470;2022-10-31T08:18:50;12.40;99.90
38973;DHT22;25333;50.762;4.470;2022-10-31T08:21:15;12.50;99.90
38973;DHT22;25333;50.762;4.470;2022-10-31T08:23:41;12.50;99.90
38973;DHT22;25333;50.762;4.470;2022-10-31T08:26:07;12.50;99.90
38973;DHT22;25333;50.762;4.470;2022-10-31T08:28:32;12.50;99.90
38973;DHT22;25333;50.762;4.470;2022-10-31T08:30:58;12.60;99.90
38973;DHT22;25333;50.762;4.470;2022-10-31T08:33:24;12.70;99.90
38973;DHT22;25333;50.762;4.470;2022-10-31T08:35:49;12.70;99.90
38973;DHT22;25333;50.762;4.470;2022-10-31T08:38:15;12.80;99.90
38973;DHT22;25333;50.762;4.470;2022-10-31T08:40:41;12.80;99.90
38973;DHT22;25333;50.762;4.470;2022-10-31T08:43:17;12.90;99.90
38973;DHT22;25333;50.762;4.470;2022-10-31T08:45:44;13.00;99.90
38973;DHT22;25333;50.762;4.470;2022-10-31T08:48:12;13.10;99.90
38973;DHT22;25333;50.762;4.470;2022-10-31T08:50:38;13.10;99.90
38973;DHT22;25333;50.762;4.470;2022-10-31T08:53:06;13.20;99.90
38973;DHT22;25333;50.762;4.470;2022-10-31T08:55:34;13.20;99.90
38973;DHT22;25333;50.762;4.470;2022-10-31T08:58:00;13.30;99.90
38973;DHT22;25333;50.762;4.470;2022-10-31T09:00:26;13.30;99.90
38973;DHT22;25333;50.762;4.470;2022-10-31T09:02:59;13.30;99.90
38973;DHT22;25333;50.762;4.470;2022-10-31T09:05:26;13.30;99.90
38973;DHT22;25333;50.762;4.470;2022-10-31T09:07:55;13.40;99.90
38973;DHT22;25333;50.762;4.470;2022-10-31T09:10:34;13.50;99.90
38973;DHT22;25333;50.762;4.470;2022-10-31T09:13:02;13.60;99.90
38973;DHT22;25333;50.762;4.470;2022-10-31T09:15:32;13.70;99.90
38973;DHT22;25333;50.762;4.470;2022-10-31T09:18:01;13.60;99.90
38973;DHT22;25333;50.762;4.470;2022-10-31T09:20:31;13.70;99.90
38973;DHT22;25333;50.762;4.470;2022-10-31T09:23:01;13.80;99.90
38973;DHT22;25333;50.762;4.470;2022-10-31T09:25:27;13.80;99.90
38973;DHT22;25333;50.762;4.470;2022-10-31T09:27:57;13.90;99.90
38973;DHT22;25333;50.762;4.470;2022-10-31T09:30:23;13.80;99.90
38973;DHT22;25333;50.762;4.470;2022-10-31T09:32:54;13.90;99.90
38973;DHT22;25333;50.762;4.470;2022-10-31T09:35:19;13.90;99.90
38973;DHT22;25333;50.762;4.470;2022-10-31T09:37:45;14.10;99.90
38973;DHT22;25333;50.762;4.470;2022-10-31T09:40:10;14.20;99.90
38973;DHT22;25333;50.762;4.470;2022-10-31T09:43:00;14.20;99.90
38973;DHT22;25333;50.762;4.470;2022-10-31T09:50:46;14.30;99.90
38973;DHT22;25333;50.762;4.470;2022-10-31T09:55:55;14.50;99.90
38973;DHT22;25333;50.762;4.470;2022-10-31T09:58:27;14.50;99.90
38973;DHT22;25333;50.762;4.470;2022-10-31T10:00:58;14.50;99.90
38973;DHT22;25333;50.762;4.470;2022-10-31T10:03:34;14.50;99.90
38973;DHT22;25333;50.762;4.470;2022-10-31T10:06:07;14.70;99.90
38973;DHT22;25333;50.762;4.470;2022-10-31T10:08:36;14.70;99.90
38973;DHT22;25333;50.762;4.470;2022-10-31T10:11:12;14.80;99.90
38973;DHT22;25333;50.762;4.470;2022-10-31T10:19:22;14.90;99.90
38973;DHT22;25333;50.762;4.470;2022-10-31T10:32:45;15.00;99.90
38973;DHT22;25333;50.762;4.470;2022-10-31T10:40:53;15.40;99.90
38973;DHT22;25333;50.762;4.470;2022-10-31T10:43:37;15.50;99.90
38973;DHT22;25333;50.762;4.470;2022-10-31T10:49:28;15.70;99.90
38973;DHT22;25333;50.762;4.470;2022-10-31T10:54:49;15.80;99.90
38973;DHT22;25333;50.762;4.470;2022-10-31T10:59:48;15.80;99.90
38973;DHT22;25333;50.762;4.470;2022-10-31T11:02:25;15.90;99.90
38973;DHT22;25333;50.762;4.470;2022-10-31T11:04:56;15.90;99.90
38973;DHT22;25333;50.762;4.470;2022-10-31T11:07:22;16.00;99.90
38973;DHT22;25333;50.762;4.470;2022-10-31T11:09:50;15.90;99.90
38973;DHT22;25333;50.762;4.470;2022-10-31T11:12:24;16.00;99.90
38973;DHT22;25333;50.762;4.470;2022-10-31T11:14:55;16.00;99.90
38973;DHT22;25333;50.762;4.470;2022-10-31T11:22:31;16.30;99.90
38973;DHT22;25333;50.762;4.470;2022-10-31T11:24:56;16.40;99.90
38973;DHT22;25333;50.762;4.470;2022-10-31T11:27:24;16.60;99.90
38973;DHT22;25333;50.762;4.470;2022-10-31T11:29:50;16.60;99.90
38973;DHT22;25333;50.762;4.470;2022-10-31T11:32:22;16.60;99.90
38973;DHT22;25333;50.762;4.470;2022-10-31T11:34:52;16.80;99.90
38973;DHT22;25333;50.762;4.470;2022-10-31T11:37:32;16.90;99.90
38973;DHT22;25333;50.762;4.470;2022-10-31T11:40:03;16.80;99.90
38973;DHT22;25333;50.762;4.470;2022-10-31T11:42:39;17.00;99.90
38973;DHT22;25333;50.762;4.470;2022-10-31T11:47:51;17.40;99.90
38973;DHT22;25333;50.762;4.470;2022-10-31T11:50:26;17.50;99.90
38973;DHT22;25333;50.762;4.470;2022-10-31T11:52:53;17.60;99.90
38973;DHT22;25333;50.762;4.470;2022-10-31T11:55:33;17.60;99.90
38973;DHT22;25333;50.762;4.470;2022-10-31T11:57:59;17.70;99.90
38973;DHT22;25333;50.762;4.470;2022-10-31T12:05:56;17.90;99.90
38973;DHT22;25333;50.762;4.470;2022-10-31T12:08:29;18.00;99.90
38973;DHT22;25333;50.762;4.470;2022-10-31T12:13:40;18.20;99.90
38973;DHT22;25333;50.762;4.470;2022-10-31T12:16:47;18.10;99.90
38973;DHT22;25333;50.762;4.470;2022-10-31T12:19:53;18.30;99.90
38973;DHT22;25333;50.762;4.470;2022-10-31T12:22:31;18.40;99.90
38973;DHT22;25333;50.762;4.470;2022-10-31T12:30:19;18.50;99.90
38973;DHT22;25333;50.762;4.470;2022-10-31T12:33:21;18.40;99.90
38973;DHT22;25333;50.762;4.470;2022-10-31T12:39:06;18.40;99.90
38973;DHT22;25333;50.762;4.470;2022-10-31T12:41:44;18.30;99.90
38973;DHT22;25333;50.762;4.470;2022-10-31T12:59:57;18.10;99.90
38973;DHT22;25333;50.762;4.470;2022-10-31T13:02:48;18.20;99.90
38973;DHT22;25333;50.762;4.470;2022-10-31T13:05:25;18.20;99.90
38973;DHT22;25333;50.762;4.470;2022-10-31T13:10:25;18.30;99.90
38973;DHT22;25333;50.762;4.470;2022-10-31T13:12:57;18.30;99.90
38973;DHT22;25333;50.762;4.470;2022-10-31T13:15:27;18.40;99.90
38973;DHT22;25333;50.762;4.470;2022-10-31T13:17:57;18.30;99.90
38973;DHT22;25333;50.762;4.470;2022-10-31T13:20:31;18.40;99.90
38973;DHT22;25333;50.762;4.470;2022-10-31T13:23:27;18.50;99.90
38973;DHT22;25333;50.762;4.470;2022-10-31T13:25:55;18.50;99.90
38973;DHT22;25333;50.762;4.470;2022-10-31T13:29:09;18.60;99.90
38973;DHT22;25333;50.762;4.470;2022-10-31T13:31:15;18.60;99.90
38973;DHT22;25333;50.762;4.470;2022-10-31T13:33:57;18.70;99.90
38973;DHT22;25333;50.762;4.470;2022-10-31T13:36:39;18.70;99.90
38973;DHT22;25333;50.762;4.470;2022-10-31T13:39:43;18.70;99.90
38973;DHT22;25333;50.762;4.470;2022-10-31T13:44:49;18.80;99.90
38973;DHT22;25333;50.762;4.470;2022-10-31T13:47:26;18.90;99.90
38973;DHT22;25333;50.762;4.470;2022-10-31T13:50:05;19.00;99.90
38973;DHT22;25333;50.762;4.470;2022-10-31T13:52:31;18.80;99.90
38973;DHT22;25333;50.762;4.470;2022-10-31T13:54:56;18.90;99.90
38973;DHT22;25333;50.762;4.470;2022-10-31T13:57:41;18.90;99.90
38973;DHT22;25333;50.762;4.470;2022-10-31T14:02:51;18.90;99.90
38973;DHT22;25333;50.762;4.470;2022-10-31T14:05:27;18.90;99.90
38973;DHT22;25333;50.762;4.470;2022-10-31T14:07:56;18.90;99.90
38973;DHT22;25333;50.762;4.470;2022-10-31T14:10:31;19.00;99.90
38973;DHT22;25333;50.762;4.470;2022-10-31T14:15:57;18.90;99.90
38973;DHT22;25333;50.762;4.470;2022-10-31T14:18:29;18.90;99.90
38973;DHT22;25333;50.762;4.470;2022-10-31T14:20:55;18.80;99.90
38973;DHT22;25333;50.762;4.470;2022-10-31T14:28:46;18.80;99.90
38973;DHT22;25333;50.762;4.470;2022-10-31T14:31:42;18.70;99.90
38973;DHT22;25333;50.762;4.470;2022-10-31T14:36:53;18.80;99.90
38973;DHT22;25333;50.762;4.470;2022-10-31T14:45:00;18.70;99.90
38973;DHT22;25333;50.762;4.470;2022-10-31T14:47:36;18.60;99.90
38973;DHT22;25333;50.762;4.470;2022-10-31T15:10:46;18.50;99.90
38973;DHT22;25333;50.762;4.470;2022-10-31T15:13:29;18.50;99.90
38973;DHT22;25333;50.762;4.470;2022-10-31T15:20:36;18.50;99.90
38973;DHT22;25333;50.762;4.470;2022-10-31T15:58:01;17.60;99.90
38973;DHT22;25333;50.762;4.470;2022-10-31T16:07:36;17.20;99.90
38973;DHT22;25333;50.762;4.470;2022-10-31T16:10:41;17.10;99.90
38973;DHT22;25333;50.762;4.470;2022-10-31T16:16:54;17.00;99.90
38973;DHT22;25333;50.762;4.470;2022-10-31T16:19:35;16.90;99.90
38973;DHT22;25333;50.762;4.470;2022-10-31T16:22:14;16.70;99.90
38973;DHT22;25333;50.762;4.470;2022-10-31T16:25:25;16.60;99.90
38973;DHT22;25333;50.762;4.470;2022-10-31T16:27:55;16.50;99.90
38973;DHT22;25333;50.762;4.470;2022-10-31T16:30:38;16.30;99.90
38973;DHT22;25333;50.762;4.470;2022-10-31T16:33:34;16.10;99.90
38973;DHT22;25333;50.762;4.470;2022-10-31T16:39:26;15.90;99.90
38973;DHT22;25333;50.762;4.470;2022-10-31T16:42:03;15.80;99.90
38973;DHT22;25333;50.762;4.470;2022-10-31T16:44:37;15.60;99.90
38973;DHT22;25333;50.762;4.470;2022-10-31T16:47:23;15.50;99.90
38973;DHT22;25333;50.762;4.470;2022-10-31T16:50:12;15.40;99.90
38973;DHT22;25333;50.762;4.470;2022-10-31T16:52:39;15.20;99.90
38973;DHT22;25333;50.762;4.470;2022-10-31T16:55:16;15.20;99.90
38973;DHT22;25333;50.762;4.470;2022-10-31T16:57:56;15.10;99.90
38973;DHT22;25333;50.762;4.470;2022-10-31T17:00:33;15.10;99.90
38973;DHT22;25333;50.762;4.470;2022-10-31T17:03:04;15.10;99.90
38973;DHT22;25333;50.762;4.470;2022-10-31T17:05:33;15.00;99.90
38973;DHT22;25333;50.762;4.470;2022-10-31T17:08:04;14.90;99.90
38973;DHT22;25333;50.762;4.470;2022-10-31T17:10:38;14.80;99.90
38973;DHT22;25333;50.762;4.470;2022-10-31T17:13:16;14.70;99.90
38973;DHT22;25333;50.762;4.470;2022-10-31T17:15:50;14.70;99.90
38973;DHT22;25333;50.762;4.470;2022-10-31T17:18:30;14.60;99.90
38973;DHT22;25333;50.762;4.470;2022-10-31T17:21:05;14.50;99.90
38973;DHT22;25333;50.762;4.470;2022-10-31T17:23:44;14.50;99.90
38973;DHT22;25333;50.762;4.470;2022-10-31T17:26:21;14.40;99.90
38973;DHT22;25333;50.762;4.470;2022-10-31T17:29:35;14.30;99.90
38973;DHT22;25333;50.762;4.470;2022-10-31T17:32:03;14.20;99.90
38973;DHT22;25333;50.762;4.470;2022-10-31T17:34:32;14.20;99.90
38973;DHT22;25333;50.762;4.470;2022-10-31T17:37:17;14.20;99.90
38973;DHT22;25333;50.762;4.470;2022-10-31T17:39:46;14.10;99.90
38973;DHT22;25333;50.762;4.470;2022-10-31T17:42:17;14.10;99.90
38973;DHT22;25333;50.762;4.470;2022-10-31T17:44:52;14.10;99.90
38973;DHT22;25333;50.762;4.470;2022-10-31T17:50:58;14.00;99.90
38973;DHT22;25333;50.762;4.470;2022-10-31T17:56:12;13.80;99.90
38973;DHT22;25333;50.762;4.470;2022-10-31T17:58:45;13.80;99.90
38973;DHT22;25333;50.762;4.470;2022-10-31T18:07:58;13.60;99.90
38973;DHT22;25333;50.762;4.470;2022-10-31T18:10:58;13.60;99.90
38973;DHT22;25333;50.762;4.470;2022-10-31T18:16:55;13.50;99.90
38973;DHT22;25333;50.762;4.470;2022-10-31T18:20:03;13.50;99.90
38973;DHT22;25333;50.762;4.470;2022-10-31T18:22:32;13.60;99.90
38973;DHT22;25333;50.762;4.470;2022-10-31T18:25:20;13.60;99.90
38973;DHT22;25333;50.762;4.470;2022-10-31T18:31:35;13.80;99.90
38973;DHT22;25333;50.762;4.470;2022-10-31T18:34:39;13.80;99.90
38973;DHT22;25333;50.762;4.470;2022-10-31T18:47:30;13.80;99.90
38973;DHT22;25333;50.762;4.470;2022-10-31T19:12:57;14.10;99.90
38973;DHT22;25333;50.762;4.470;2022-10-31T19:22:37;14.10;99.90
38973;DHT22;25333;50.762;4.470;2022-10-31T19:25:25;14.10;99.90
38973;DHT22;25333;50.762;4.470;2022-10-31T19:28:19;14.20;99.90
38973;DHT22;25333;50.762;4.470;2022-10-31T19:34:49;14.30;99.90
38973;DHT22;25333;50.762;4.470;2022-10-31T19:37:38;14.30;99.90
38973;DHT22;25333;50.762;4.470;2022-10-31T19:40:47;14.40;99.90
38973;DHT22;25333;50.762;4.470;2022-10-31T19:43:37;14.40;99.90
38973;DHT22;25333;50.762;4.470;2022-10-31T20:11:05;14.80;99.90
38973;DHT22;25333;50.762;4.470;2022-10-31T20:25:35;15.20;99.90
38973;DHT22;25333;50.762;4.470;2022-10-31T20:28:35;15.20;99.90
38973;DHT22;25333;50.762;4.470;2022-10-31T20:31:18;15.30;99.90
38973;DHT22;25333;50.762;4.470;2022-10-31T20:33:57;15.30;99.90
38973;DHT22;25333;50.762;4.470;2022-10-31T20:39:40;15.40;99.90
38973;DHT22;25333;50.762;4.470;2022-10-31T20:42:14;15.50;99.90
38973;DHT22;25333;50.762;4.470;2022-10-31T20:44:40;15.50;99.90
38973;DHT22;25333;50.762;4.470;2022-10-31T20:47:25;15.50;99.90
38973;DHT22;25333;50.762;4.470;2022-10-31T20:49:51;15.60;99.90
38973;DHT22;25333;50.762;4.470;2022-10-31T20:52:17;15.50;99.90
38973;DHT22;25333;50.762;4.470;2022-10-31T21:01:01;15.40;99.90
38973;DHT22;25333;50.762;4.470;2022-10-31T21:03:35;15.50;99.90
38973;DHT22;25333;50.762;4.470;2022-10-31T21:06:30;15.60;99.90
38973;DHT22;25333;50.762;4.470;2022-10-31T21:09:06;15.70;99.90
38973;DHT22;25333;50.762;4.470;2022-10-31T21:11:34;15.70;99.90
38973;DHT22;25333;50.762;4.470;2022-10-31T21:14:00;15.70;99.90